createdAt,value
2023-04-19T00:02:26.336Z,1.70
2023-04-19T00:04:55.861Z,1.60
2023-04-19T00:07:23.627Z,2.00
2023-04-19T00:09:51.114Z,1.93
2023-04-19T00:12:18.928Z,1.77
2023-04-19T00:14:46.388Z,2.40
2023-04-19T00:17:13.978Z,2.20
2023-04-19T00:19:41.922Z,2.10
2023-04-19T00:22:09.535Z,1.83
2023-04-19T00:24:37.019Z,2.20
2023-04-19T00:27:04.569Z,2.47
2023-04-19T00:29:32.236Z,2.23
2023-04-19T00:31:59.767Z,2.00
2023-04-19T00:34:47.389Z,1.80
2023-04-19T00:37:14.962Z,1.93
2023-04-19T00:39:42.789Z,2.00
2023-04-19T00:42:10.429Z,2.30
2023-04-19T00:44:38.196Z,2.10
2023-04-19T00:47:06.159Z,2.00
2023-04-19T00:49:33.700Z,2.33
2023-04-19T00:52:01.467Z,2.87
2023-04-19T00:54:29.159Z,2.57
2023-04-19T00:56:57.223Z,2.83
2023-04-19T00:59:25.736Z,3.23
2023-04-19T01:01:53.861Z,3.23
2023-04-19T01:04:23.153Z,2.73
2023-04-19T01:06:51.470Z,3.17
2023-04-19T01:09:19.054Z,3.10
2023-04-19T01:11:46.641Z,2.90
2023-04-19T01:14:16.122Z,3.00
2023-04-19T01:16:48.066Z,2.97
2023-04-19T01:19:16.814Z,3.13
2023-04-19T01:21:44.559Z,3.53
2023-04-19T01:24:12.201Z,3.27
2023-04-19T01:26:39.745Z,5.93
2023-04-19T01:29:07.192Z,4.87
2023-04-19T01:31:35.293Z,4.20
2023-04-19T01:34:04.683Z,3.67
2023-04-19T01:36:32.461Z,3.87
2023-04-19T01:39:00.328Z,4.17
2023-04-19T01:41:29.717Z,4.00
2023-04-19T01:43:57.290Z,5.23
2023-04-19T01:46:25.931Z,5.33
2023-04-19T01:48:53.526Z,4.30
2023-04-19T01:51:22.161Z,4.30
2023-04-19T01:53:54.548Z,3.90
2023-04-19T01:56:23.879Z,4.30
2023-04-19T01:58:51.350Z,3.40
2023-04-19T02:01:19.104Z,3.57
2023-04-19T02:03:47.233Z,4.53
2023-04-19T02:06:15.575Z,4.07
2023-04-19T02:08:43.824Z,4.40
2023-04-19T02:11:16.846Z,4.63
2023-04-19T02:13:46.157Z,4.70
2023-04-19T02:16:13.733Z,5.00
2023-04-19T02:18:41.673Z,5.17
2023-04-19T02:21:11.499Z,5.17
2023-04-19T02:23:42.161Z,5.20
2023-04-19T02:26:11.425Z,6.20
2023-04-19T02:28:39.348Z,6.43
2023-04-19T02:31:08.530Z,6.80
2023-04-19T02:33:36.598Z,10.80
2023-04-19T02:36:04.794Z,8.33
2023-04-19T02:38:34.295Z,6.10
2023-04-19T02:41:04.378Z,5.70
2023-04-19T02:43:31.932Z,5.63
2023-04-19T02:45:59.523Z,6.30
2023-04-19T02:48:27.416Z,5.70
2023-04-19T02:50:57.084Z,5.53
2023-04-19T02:53:28.570Z,5.87
2023-04-19T02:55:57.980Z,5.60
2023-04-19T02:58:26.510Z,6.13
2023-04-19T03:01:02.847Z,5.63
2023-04-19T03:03:30.484Z,5.33
2023-04-19T03:05:59.150Z,5.93
2023-04-19T03:08:29.704Z,6.97
2023-04-19T03:10:58.192Z,6.30
2023-04-19T03:13:25.867Z,7.10
2023-04-19T03:15:54.716Z,7.40
2023-04-19T03:18:23.783Z,7.10
2023-04-19T03:20:53.566Z,7.67
2023-04-19T03:23:21.831Z,7.97
2023-04-19T03:25:51.653Z,8.37
2023-04-19T03:28:30.244Z,9.47
2023-04-19T03:31:16.562Z,9.07
2023-04-19T03:33:45.223Z,8.67
2023-04-19T03:36:15.111Z,8.17
2023-04-19T03:38:44.553Z,10.00
2023-04-19T03:41:26.161Z,9.93
2023-04-19T03:44:04.923Z,10.27
2023-04-19T03:46:32.547Z,9.37
2023-04-19T03:49:00.582Z,9.23
2023-04-19T03:51:29.244Z,9.80
2023-04-19T03:53:57.978Z,8.80
2023-04-19T03:56:27.376Z,9.20
2023-04-19T03:58:56.287Z,7.80
2023-04-19T04:01:26.918Z,7.40
2023-04-19T04:03:57.886Z,7.73
2023-04-19T04:06:26.869Z,7.03
2023-04-19T04:08:56.115Z,6.40
2023-04-19T04:11:26.028Z,8.03
2023-04-19T04:13:57.856Z,7.40
2023-04-19T04:16:35.308Z,8.07
2023-04-19T04:19:44.988Z,7.90
2023-04-19T04:22:13.613Z,8.37
2023-04-19T04:24:44.483Z,7.10
2023-04-19T04:27:37.523Z,6.43
2023-04-19T04:30:10.219Z,6.23
2023-04-19T04:32:38.931Z,6.03
2023-04-19T04:35:11.389Z,6.17
2023-04-19T04:37:54.032Z,8.90
2023-04-19T04:40:22.035Z,8.47
2023-04-19T04:42:49.652Z,5.73
2023-04-19T04:45:18.543Z,6.03
2023-04-19T04:47:46.641Z,4.30
2023-04-19T04:50:16.744Z,4.33
2023-04-19T04:52:45.674Z,3.80
2023-04-19T04:55:28.670Z,4.43
2023-04-19T04:57:59.836Z,4.03
2023-04-19T05:00:41.944Z,5.67
2023-04-19T05:03:12.362Z,5.30
2023-04-19T05:05:47.608Z,4.37
2023-04-19T05:08:15.206Z,4.83
2023-04-19T05:10:44.052Z,5.17
2023-04-19T05:13:31.466Z,4.90
2023-04-19T05:16:01.471Z,4.30
2023-04-19T05:18:29.259Z,4.47
2023-04-19T05:20:58.245Z,4.50
2023-04-19T05:23:45.810Z,6.87
2023-04-19T05:26:15.685Z,5.07
2023-04-19T05:28:47.391Z,5.70
2023-04-19T05:31:22.762Z,4.50
2023-04-19T05:34:06.446Z,4.13
2023-04-19T05:36:34.005Z,4.50
2023-04-19T05:39:01.683Z,4.13
2023-04-19T05:41:29.152Z,4.30
2023-04-19T05:43:56.893Z,3.77
2023-04-19T05:46:26.197Z,3.67
2023-04-19T05:48:54.103Z,3.60
2023-04-19T05:51:28.446Z,3.03
2023-04-19T05:54:19.613Z,2.80
2023-04-19T05:56:48.704Z,3.40
2023-04-19T05:59:16.280Z,2.60
2023-04-19T06:01:44.119Z,3.07
2023-04-19T06:04:13.209Z,3.30
2023-04-19T06:06:41.340Z,2.90
2023-04-19T06:09:08.916Z,2.70
2023-04-19T06:11:46.958Z,3.60
2023-04-19T06:14:18.103Z,4.07
2023-04-19T06:16:46.252Z,2.97
2023-04-19T06:19:13.796Z,3.50
2023-04-19T06:21:41.369Z,3.20
2023-04-19T06:24:09.048Z,7.93
2023-04-19T06:26:36.517Z,6.63
2023-04-19T06:29:05.610Z,4.87
2023-04-19T06:31:34.238Z,3.40
2023-04-19T06:34:01.997Z,3.47
2023-04-19T06:36:29.994Z,6.30
2023-04-19T06:38:57.797Z,2.80
2023-04-19T06:41:26.393Z,2.50
2023-04-19T06:43:55.353Z,2.90
2023-04-19T06:46:23.033Z,2.20
2023-04-19T06:48:51.005Z,1.83
2023-04-19T06:51:18.536Z,2.30
2023-04-19T06:53:47.530Z,2.20
2023-04-19T06:56:15.384Z,3.60
2023-04-19T06:58:42.842Z,3.33
2023-04-19T07:01:10.766Z,2.20
2023-04-19T07:03:38.446Z,3.13
2023-04-19T07:06:06.674Z,3.23
2023-04-19T07:08:48.743Z,2.83
2023-04-19T07:11:17.467Z,4.70
2023-04-19T07:13:44.968Z,2.07
2023-04-19T07:16:13.935Z,1.80
2023-04-19T07:18:41.489Z,1.60
2023-04-19T07:21:12.636Z,1.80
2023-04-19T07:23:40.236Z,1.60
2023-04-19T07:26:08.522Z,1.60
2023-04-19T07:28:36.080Z,2.10
2023-04-19T07:31:03.686Z,2.00
2023-04-19T07:33:31.407Z,2.00
2023-04-19T07:35:58.943Z,1.70
2023-04-19T07:38:26.496Z,1.30
2023-04-19T07:40:54.345Z,1.23
2023-04-19T07:43:22.169Z,0.97
2023-04-19T07:45:49.624Z,1.00
2023-04-19T07:48:17.140Z,1.20
2023-04-19T07:50:44.713Z,1.10
2023-04-19T07:53:12.270Z,1.10
2023-04-19T07:55:39.816Z,0.93
2023-04-19T07:58:07.362Z,1.27
2023-04-19T08:00:36.721Z,1.10
2023-04-19T08:03:04.937Z,0.80
2023-04-19T08:05:32.947Z,1.10
2023-04-19T08:08:00.511Z,1.30
2023-04-19T08:10:29.049Z,1.13
2023-04-19T08:13:04.363Z,1.10
2023-04-19T08:16:18.267Z,1.23
2023-04-19T08:18:27.025Z,1.17
2023-04-19T08:20:55.713Z,1.00
2023-04-19T08:23:29.475Z,1.20
2023-04-19T08:26:02.362Z,1.40
2023-04-19T08:28:30.342Z,1.70
2023-04-19T08:31:00.064Z,1.50
2023-04-19T08:33:29.231Z,1.70
2023-04-19T08:35:56.634Z,1.80
2023-04-19T08:38:24.073Z,1.60
2023-04-19T08:40:55.515Z,1.67
2023-04-19T08:43:28.844Z,1.47
2023-04-19T08:45:57.286Z,1.30
2023-04-19T08:48:25.620Z,1.00
2023-04-19T08:51:04.972Z,1.20
2023-04-19T08:53:36.056Z,0.90
2023-04-19T08:56:15.142Z,1.20
2023-04-19T08:59:03.902Z,1.10
2023-04-19T09:01:43.847Z,0.90
2023-04-19T09:04:34.458Z,1.20
2023-04-19T09:06:59.896Z,0.90
2023-04-19T09:12:00.649Z,1.07
2023-04-19T09:14:29.978Z,1.00
2023-04-19T09:17:17.673Z,0.80
2023-04-19T09:19:51.318Z,1.00
2023-04-19T09:22:19.844Z,1.40
2023-04-19T09:27:33.736Z,1.30
2023-04-19T09:30:03.795Z,1.40
2023-04-19T09:32:49.668Z,1.40
2023-04-19T09:35:17.517Z,1.17
2023-04-19T09:38:06.219Z,1.13
2023-04-19T09:40:34.540Z,1.40
2023-04-19T09:43:23.115Z,1.37
2023-04-19T09:45:51.668Z,1.60
2023-04-19T09:48:19.173Z,1.17
2023-04-19T09:51:04.568Z,1.10
2023-04-19T09:53:41.647Z,1.20
2023-04-19T09:56:12.953Z,1.20
2023-04-19T09:58:51.115Z,1.33
2023-04-19T10:01:23.059Z,1.30
2023-04-19T10:03:52.580Z,1.30
2023-04-19T10:08:56.173Z,1.20
2023-04-19T10:11:25.274Z,1.20
2023-04-19T10:14:00.766Z,0.93
2023-04-19T10:16:28.546Z,1.30
2023-04-19T10:18:57.059Z,1.17
2023-04-19T10:21:27.338Z,1.10
2023-04-19T10:23:59.142Z,1.30
2023-04-19T10:26:26.782Z,1.30
2023-04-19T10:28:57.976Z,1.20
2023-04-19T10:31:28.573Z,1.40
2023-04-19T10:33:57.801Z,1.23
2023-04-19T10:36:31.119Z,1.30
2023-04-19T10:38:58.728Z,0.93
2023-04-19T10:41:58.277Z,1.20
2023-04-19T10:44:26.629Z,1.20
2023-04-19T10:46:54.078Z,1.10
2023-04-19T10:49:24.422Z,1.20
2023-04-19T10:51:55.311Z,1.20
2023-04-19T10:54:35.818Z,1.00
2023-04-19T10:57:11.543Z,0.97
2023-04-19T10:59:44.326Z,1.00
2023-04-19T11:02:25.068Z,0.87
2023-04-19T11:04:52.905Z,0.90
2023-04-19T11:07:23.914Z,0.90
2023-04-19T11:09:52.622Z,0.80
2023-04-19T11:12:23.503Z,0.80
2023-04-19T11:15:00.524Z,0.80
2023-04-19T11:17:32.101Z,0.87
2023-04-19T11:20:01.761Z,0.70
2023-04-19T11:23:01.882Z,0.80
2023-04-19T11:25:31.660Z,0.60
2023-04-19T11:28:01.247Z,1.07
2023-04-19T11:30:32.881Z,0.87
2023-04-19T11:33:00.449Z,1.43
2023-04-19T11:35:32.716Z,0.70
2023-04-19T11:38:01.601Z,0.73
2023-04-19T11:40:29.312Z,0.90
2023-04-19T11:43:02.534Z,0.60
2023-04-19T11:45:39.848Z,0.70
2023-04-19T11:48:17.369Z,0.90
2023-04-19T11:50:49.522Z,0.80
2023-04-19T11:53:23.213Z,0.90
2023-04-19T11:55:52.467Z,0.93
2023-04-19T11:58:29.185Z,0.80
2023-04-19T12:01:04.058Z,0.73
2023-04-19T12:03:31.853Z,0.70
2023-04-19T12:06:09.093Z,0.90
2023-04-19T12:08:45.532Z,0.80
2023-04-19T12:11:13.290Z,0.90
2023-04-19T12:13:41.731Z,0.70
2023-04-19T12:16:12.908Z,0.53
2023-04-19T12:19:17.916Z,0.90
2023-04-19T12:21:47.641Z,0.70
2023-04-19T12:24:18.724Z,0.93
2023-04-19T12:26:57.196Z,1.10
2023-04-19T12:29:24.829Z,0.87
2023-04-19T12:31:52.274Z,1.00
2023-04-19T12:34:19.779Z,0.90
2023-04-19T12:36:50.225Z,0.77
2023-04-19T12:39:17.938Z,1.07
2023-04-19T12:41:48.508Z,0.90
2023-04-19T12:44:16.998Z,1.23
2023-04-19T12:46:45.061Z,1.33
2023-04-19T12:49:12.543Z,1.00
2023-04-19T12:51:40.181Z,0.70
2023-04-19T12:54:07.727Z,1.20
2023-04-19T12:56:36.355Z,0.93
2023-04-19T12:59:04.181Z,0.90
2023-04-19T13:01:33.207Z,0.80
2023-04-19T13:04:01.022Z,1.00
2023-04-19T13:06:28.882Z,1.00
2023-04-19T13:09:14.231Z,0.87
2023-04-19T13:12:13.157Z,0.90
2023-04-19T13:14:41.008Z,0.90
2023-04-19T13:17:18.304Z,1.30
2023-04-19T13:19:47.791Z,0.87
2023-04-19T13:22:15.910Z,0.83
2023-04-19T13:24:43.939Z,1.00
2023-04-19T13:27:12.501Z,0.90
2023-04-19T13:29:40.591Z,0.90
2023-04-19T13:32:12.306Z,1.10
2023-04-19T13:34:42.668Z,0.90
2023-04-19T13:37:10.768Z,1.00
2023-04-19T13:39:39.504Z,0.73
2023-04-19T13:42:07.317Z,0.80
2023-04-19T13:44:34.833Z,0.93
2023-04-19T13:47:04.537Z,0.93
2023-04-19T13:49:32.079Z,0.93
2023-04-19T13:51:59.633Z,1.10
2023-04-19T13:54:27.225Z,1.20
2023-04-19T13:56:54.787Z,1.00
2023-04-19T13:59:26.004Z,0.90
2023-04-19T14:01:56.028Z,0.90
2023-04-19T14:04:25.865Z,1.00
2023-04-19T14:06:54.029Z,1.00
2023-04-19T14:09:21.797Z,1.13
2023-04-19T14:11:49.461Z,1.10
2023-04-19T14:14:17.391Z,1.07
2023-04-19T14:16:45.396Z,1.50
2023-04-19T14:19:12.985Z,0.90
2023-04-19T14:21:40.425Z,1.23
2023-04-19T14:24:08.072Z,1.30
2023-04-19T14:26:35.583Z,1.10
2023-04-19T14:29:04.037Z,1.10
2023-04-19T14:31:32.804Z,1.40
2023-04-19T14:34:01.650Z,1.50
2023-04-19T14:36:30.537Z,1.70
2023-04-19T14:38:58.495Z,1.60
2023-04-19T14:41:26.032Z,1.70
2023-04-19T14:43:55.522Z,2.40
2023-04-19T14:46:24.863Z,2.50
2023-04-19T14:48:53.984Z,1.63
2023-04-19T14:51:22.526Z,1.93
2023-04-19T14:53:54.391Z,2.43
2023-04-19T14:56:24.116Z,2.60
2023-04-19T14:58:54.079Z,2.50
2023-04-19T15:01:23.304Z,1.83
2023-04-19T15:03:54.222Z,2.30
2023-04-19T15:06:22.010Z,2.17
2023-04-19T15:08:50.471Z,2.30
2023-04-19T15:11:18.437Z,2.70
2023-04-19T15:13:46.411Z,2.23
2023-04-19T15:16:15.177Z,2.30
2023-04-19T15:18:44.317Z,2.30
2023-04-19T15:21:13.371Z,2.23
2023-04-19T15:23:42.442Z,2.30
2023-04-19T15:26:10.602Z,2.60
2023-04-19T15:28:38.642Z,2.30
2023-04-19T15:31:07.965Z,2.37
2023-04-19T15:33:37.700Z,2.13
2023-04-19T15:36:06.009Z,4.53
2023-04-19T15:38:34.158Z,2.80
2023-04-19T15:41:01.882Z,2.80
2023-04-19T15:43:29.534Z,2.70
2023-04-19T15:45:57.014Z,2.60
2023-04-19T15:48:24.554Z,2.70
2023-04-19T15:50:52.071Z,3.00
2023-04-19T15:53:19.613Z,2.50
2023-04-19T15:55:48.064Z,3.00
2023-04-19T15:58:16.461Z,2.60
2023-04-19T16:00:47.132Z,2.47
2023-04-19T16:03:17.385Z,2.77
2023-04-19T16:05:45.124Z,2.90
2023-04-19T16:08:17.369Z,2.73
2023-04-19T16:10:46.177Z,3.00
2023-04-19T16:13:15.524Z,3.03
2023-04-19T16:15:45.047Z,3.03
2023-04-19T16:18:18.887Z,3.33
2023-04-19T16:20:47.320Z,3.70
2023-04-19T16:23:14.946Z,3.40
2023-04-19T16:25:42.593Z,3.47
2023-04-19T16:28:10.091Z,2.87
2023-04-19T16:30:37.776Z,3.00
2023-04-19T16:33:07.769Z,3.27
2023-04-19T16:35:37.444Z,2.97
2023-04-19T16:38:07.052Z,3.83
2023-04-19T16:40:36.529Z,14.93
2023-04-19T16:43:06.316Z,4.87
2023-04-19T16:45:55.127Z,2.80
2023-04-19T16:48:30.406Z,2.70
2023-04-19T16:51:03.087Z,2.67
2023-04-19T16:53:32.240Z,2.63
2023-04-19T16:56:03.444Z,2.33
2023-04-19T16:58:34.703Z,2.70
2023-04-19T17:01:02.733Z,2.33
2023-04-19T17:03:30.577Z,2.30
2023-04-19T17:05:59.408Z,2.53
2023-04-19T17:08:49.840Z,2.43
2023-04-19T17:11:18.868Z,2.40
2023-04-19T17:13:46.414Z,2.90
2023-04-19T17:16:15.419Z,2.50
2023-04-19T17:18:45.542Z,2.37
2023-04-19T17:21:16.327Z,2.63
2023-04-19T17:23:49.418Z,3.10
2023-04-19T17:26:19.740Z,7.90
2023-04-19T17:28:47.295Z,15.57
2023-04-19T17:31:14.923Z,21.77
2023-04-19T17:33:42.912Z,13.87
2023-04-19T17:36:31.559Z,9.50
2023-04-19T17:39:00.720Z,7.77
2023-04-19T17:41:28.285Z,4.93
2023-04-19T17:43:57.378Z,7.53
2023-04-19T17:46:24.821Z,6.20
2023-04-19T17:48:54.539Z,19.03
2023-04-19T17:51:22.530Z,15.30
2023-04-19T17:53:50.242Z,10.43
2023-04-19T17:56:21.401Z,5.00
2023-04-19T17:58:49.088Z,4.00
2023-04-19T18:01:16.663Z,4.30
2023-04-19T18:03:45.860Z,3.60
2023-04-19T18:06:21.577Z,5.93
2023-04-19T18:08:49.282Z,4.90
2023-04-19T18:11:18.336Z,4.53
2023-04-19T18:13:46.102Z,4.10
2023-04-19T18:16:14.157Z,4.63
2023-04-19T18:18:44.826Z,4.10
2023-04-19T18:21:15.940Z,4.10
2023-04-19T18:23:44.135Z,5.83
2023-04-19T18:26:11.811Z,13.17
2023-04-19T18:28:42.537Z,10.77
2023-04-19T18:31:15.839Z,5.13
2023-04-19T18:33:44.213Z,7.63
2023-04-19T18:36:14.265Z,5.23
2023-04-19T18:38:45.946Z,8.03
2023-04-19T18:41:14.801Z,12.13
2023-04-19T18:43:54.565Z,34.73
2023-04-19T18:46:34.293Z,37.77
2023-04-19T18:49:22.060Z,29.60
2023-04-19T18:51:52.482Z,34.33
2023-04-19T18:54:21.818Z,37.80
2023-04-19T18:57:21.168Z,30.97
2023-04-19T18:59:42.072Z,18.07
2023-04-19T19:02:11.702Z,7.40
2023-04-19T19:04:56.142Z,7.40
2023-04-19T19:10:10.709Z,4.17
2023-04-19T19:12:50.683Z,4.57
2023-04-19T19:15:26.584Z,4.17
2023-04-19T19:17:54.850Z,4.60
2023-04-19T19:20:23.430Z,4.77
2023-04-19T19:22:55.844Z,5.60
2023-04-19T19:25:24.371Z,6.60
2023-04-19T19:28:07.089Z,5.97
2023-04-19T19:30:40.271Z,6.37
2023-04-19T19:33:08.886Z,5.67
2023-04-19T19:35:42.346Z,5.07
2023-04-19T19:38:10.110Z,4.53
2023-04-19T19:41:04.154Z,5.50
2023-04-19T19:43:26.272Z,6.37
2023-04-19T19:45:55.510Z,6.47
2023-04-19T19:48:25.939Z,6.83
2023-04-19T19:51:25.010Z,7.00
2023-04-19T19:53:53.583Z,6.07
2023-04-19T19:56:28.147Z,5.37
2023-04-19T19:58:58.940Z,4.90
2023-04-19T20:01:29.710Z,4.20
2023-04-19T20:03:58.733Z,3.87
2023-04-19T20:09:24.492Z,4.20
2023-04-19T20:11:52.607Z,4.70
2023-04-19T20:14:26.286Z,8.30
2023-04-19T20:16:56.755Z,11.37
2023-04-19T20:19:24.658Z,12.77
2023-04-19T20:21:52.986Z,15.80
2023-04-19T20:24:22.044Z,17.33
2023-04-19T20:26:49.698Z,16.43
2023-04-19T20:29:19.377Z,11.60
2023-04-19T20:31:46.987Z,11.67
2023-04-19T20:34:14.514Z,11.50
2023-04-19T20:36:53.865Z,11.50
2023-04-19T20:39:23.538Z,10.93
2023-04-19T20:41:51.690Z,11.47
2023-04-19T20:44:22.923Z,10.70
2023-04-19T20:46:52.637Z,10.10
2023-04-19T20:49:22.637Z,10.20
2023-04-19T20:51:53.842Z,10.40
2023-04-19T20:54:23.096Z,8.17
2023-04-19T20:56:52.545Z,5.53
2023-04-19T20:59:20.458Z,5.80
2023-04-19T21:01:48.093Z,6.70
2023-04-19T21:04:15.794Z,6.23
2023-04-19T21:06:43.324Z,5.47
2023-04-19T21:09:11.207Z,5.33
2023-04-19T21:11:38.681Z,5.57
2023-04-19T21:14:06.185Z,5.67
2023-04-19T21:16:34.012Z,5.47
2023-04-19T21:19:01.736Z,6.87
2023-04-19T21:21:30.535Z,6.53
2023-04-19T21:24:01.667Z,6.20
2023-04-19T21:26:29.200Z,7.20
2023-04-19T21:28:56.644Z,6.97
2023-04-19T21:31:24.203Z,9.63
2023-04-19T21:33:51.726Z,17.33
2023-04-19T21:36:20.607Z,17.20
2023-04-19T21:38:48.613Z,15.87
2023-04-19T21:41:16.090Z,13.50
2023-04-19T21:43:43.563Z,14.57
2023-04-19T21:46:11.164Z,16.53
2023-04-19T21:48:42.181Z,12.57
2023-04-19T21:51:10.523Z,14.17
2023-04-19T21:53:39.364Z,13.13
2023-04-19T21:56:07.198Z,13.00
2023-04-19T21:58:34.657Z,9.80
2023-04-19T22:01:02.259Z,9.10
2023-04-19T22:03:29.994Z,10.37
2023-04-19T22:06:01.863Z,13.53
2023-04-19T22:08:32.634Z,12.00
2023-04-19T22:11:01.223Z,11.00
2023-04-19T22:13:30.228Z,9.90
2023-04-19T22:16:00.876Z,7.47
2023-04-19T22:18:28.459Z,5.43
2023-04-19T22:20:55.912Z,7.63
2023-04-19T22:23:23.419Z,10.90
2023-04-19T22:25:53.305Z,7.57
2023-04-19T22:28:20.850Z,5.70
2023-04-19T22:30:48.469Z,5.10
2023-04-19T22:33:16.167Z,5.03
2023-04-19T22:35:43.638Z,8.80
2023-04-19T22:38:11.160Z,8.60
2023-04-19T22:40:38.816Z,12.17
2023-04-19T22:43:06.375Z,14.13
2023-04-19T22:45:34.009Z,15.50
2023-04-19T22:48:01.569Z,9.40
2023-04-19T22:50:29.270Z,5.23
2023-04-19T22:52:56.750Z,4.33
2023-04-19T22:55:24.398Z,4.50
2023-04-19T22:57:51.871Z,3.23
2023-04-19T23:00:19.807Z,2.87
2023-04-19T23:02:47.489Z,3.27
2023-04-19T23:05:15.161Z,3.20
2023-04-19T23:07:45.798Z,2.80
2023-04-19T23:10:13.471Z,2.97
2023-04-19T23:12:40.980Z,3.07
2023-04-19T23:15:10.857Z,2.77
2023-04-19T23:17:39.471Z,3.20
2023-04-19T23:20:11.298Z,2.50
2023-04-19T23:22:39.804Z,3.17
2023-04-19T23:25:08.111Z,4.00
2023-04-19T23:27:36.294Z,4.03
2023-04-19T23:30:06.998Z,4.30
2023-04-19T23:32:34.763Z,4.20
2023-04-19T23:35:02.318Z,2.70
2023-04-19T23:37:29.902Z,3.20
2023-04-19T23:39:57.458Z,7.17
2023-04-19T23:42:25.033Z,9.00
2023-04-19T23:44:54.521Z,8.00
2023-04-19T23:47:22.215Z,4.83
2023-04-19T23:49:50.074Z,5.10
2023-04-19T23:52:18.238Z,8.43
2023-04-19T23:54:45.697Z,6.43
2023-04-19T23:57:13.136Z,4.90
2023-04-19T23:59:40.656Z,4.30
